Time;durP1;ratioP1;P1;durP2;ratioP2;P2;SDS_P1;SDS_P2;PMS_P1;PMS_P2;Temp;Humidity;BMP_temperature;BMP_pressure;BME280_temperature;BME280_humidity;BME280_pressure;Samples;Min_cycle;Max_cycle;Signal;HPM_P1;HPM_P2
2022/11/03 00:01:03;;;;;;;11.80;2.13;;;12.10;99.90;;;;;;5090066;28;20098;-82
2022/11/03 00:03:28;;;;;;;15.25;2.35;;;12.10;99.90;;;;;;5089877;28;20082;-82
2022/11/03 00:06:06;;;;;;;8.30;1.95;;;12.10;99.90;;;;;;5090224;28;20044;-82
2022/11/03 00:08:40;;;;;;;8.50;1.50;;;12.10;99.90;;;;;;5090317;28;20040;-82
2022/11/03 00:11:12;;;;;;;10.43;2.03;;;12.10;99.90;;;;;;5090086;28;20039;-82
2022/11/03 00:13:40;;;;;;;7.40;1.52;;;12.10;99.90;;;;;;5071149;28;20122;-82
2022/11/03 00:16:08;;;;;;;9.00;2.30;;;12.20;99.90;;;;;;5088894;28;20532;-82
2022/11/03 00:18:33;;;;;;;9.20;2.03;;;12.20;99.90;;;;;;5073158;28;20036;-82
2022/11/03 00:21:08;;;;;;;12.77;2.67;;;12.20;99.90;;;;;;5090202;28;20039;-82
2022/11/03 00:23:36;;;;;;;10.18;1.75;;;12.20;99.90;;;;;;5089782;28;20040;-82
2022/11/03 00:26:04;;;;;;;10.57;2.10;;;12.10;99.90;;;;;;5073050;28;20036;-82
2022/11/03 00:28:31;;;;;;;11.63;2.22;;;12.10;99.90;;;;;;5090285;28;20515;-82
2022/11/03 00:30:57;;;;;;;13.15;2.08;;;12.10;99.90;;;;;;5090016;28;20075;-82
2022/11/03 00:33:25;;;;;;;8.38;1.92;;;12.10;99.90;;;;;;5072773;28;20080;-82
2022/11/03 00:35:59;;;;;;;9.52;2.40;;;12.10;99.90;;;;;;5090007;28;20047;-82
2022/11/03 00:38:24;;;;;;;9.27;1.90;;;12.10;99.90;;;;;;5073179;28;20477;-82
2022/11/03 00:40:54;;;;;;;12.57;1.90;;;12.10;99.90;;;;;;5090192;28;20123;-82
2022/11/03 00:43:21;;;;;;;10.60;1.92;;;12.10;99.90;;;;;;5072734;28;20044;-82
2022/11/03 00:45:47;;;;;;;11.48;2.03;;;12.10;99.90;;;;;;5073025;28;20043;-82
2022/11/03 00:48:28;;;;;;;9.27;1.70;;;12.00;99.90;;;;;;5090123;28;20040;-82
2022/11/03 00:51:03;;;;;;;9.98;2.08;;;12.10;99.90;;;;;;5093359;28;20036;-82
2022/11/03 00:53:31;;;;;;;13.82;3.80;;;12.00;99.90;;;;;;5093028;28;20032;-82
2022/11/03 00:55:57;;;;;;;12.23;2.17;;;12.00;99.90;;;;;;5093317;28;20126;-82
2022/11/03 00:58:22;;;;;;;8.13;1.80;;;12.00;99.90;;;;;;5093431;28;20079;-82
2022/11/03 01:00:48;;;;;;;14.57;3.45;;;12.00;99.90;;;;;;5076176;28;20110;-82
2022/11/03 01:03:13;;;;;;;14.13;2.47;;;12.00;99.90;;;;;;5093318;28;20050;-83
2022/11/03 01:08:25;;;;;;;12.27;2.40;;;12.00;99.90;;;;;;5093231;28;20436;-82
2022/11/03 01:13:34;;;;;;;8.77;2.53;;;12.00;99.90;;;;;;5093016;28;20405;-82
2022/11/03 01:16:00;;;;;;;11.65;1.60;;;12.00;99.90;;;;;;5076127;28;20467;-84
2022/11/03 01:18:25;;;;;;;8.45;1.85;;;11.90;99.90;;;;;;5092991;28;20044;-84
2022/11/03 01:20:57;;;;;;;9.40;1.70;;;11.90;99.90;;;;;;5092959;28;20043;-84
2022/11/03 01:23:23;;;;;;;17.00;2.38;;;11.80;99.90;;;;;;5092293;28;20036;-84
2022/11/03 01:25:49;;;;;;;14.43;2.88;;;11.80;99.90;;;;;;5076056;28;20034;-84
2022/11/03 01:28:14;;;;;;;12.38;2.13;;;11.80;99.90;;;;;;5092710;28;20032;-84
2022/11/03 01:30:40;;;;;;;14.27;2.05;;;11.90;99.90;;;;;;5092734;28;20086;-84
2022/11/03 01:33:06;;;;;;;11.15;2.63;;;11.90;99.90;;;;;;5075287;28;20412;-84
2022/11/03 01:35:31;;;;;;;9.77;1.67;;;11.80;99.90;;;;;;5092608;28;20048;-84
2022/11/03 01:37:57;;;;;;;11.20;2.67;;;11.80;99.90;;;;;;5092559;28;20078;-84
2022/11/03 01:40:22;;;;;;;13.80;3.67;;;11.80;99.90;;;;;;5092831;28;20051;-84
2022/11/03 01:42:48;;;;;;;11.32;1.85;;;11.90;99.90;;;;;;5092177;28;20039;-84
2022/11/03 01:45:13;;;;;;;11.77;2.83;;;11.90;99.90;;;;;;5075913;28;20156;-84
2022/11/03 01:47:42;;;;;;;9.43;1.63;;;11.90;99.90;;;;;;5092257;28;20515;-84
2022/11/03 01:50:15;;;;;;;8.80;1.73;;;11.90;99.90;;;;;;5092378;28;20048;-84
2022/11/03 01:52:47;;;;;;;11.57;2.05;;;11.90;99.90;;;;;;5075246;28;20044;-84
2022/11/03 01:55:18;;;;;;;9.98;1.92;;;12.00;99.90;;;;;;5075430;28;20390;-84
2022/11/03 01:57:49;;;;;;;9.10;1.90;;;12.00;99.90;;;;;;5075275;28;20040;-84
2022/11/03 02:00:15;;;;;;;9.95;2.03;;;12.00;99.90;;;;;;5074850;28;20081;-84
2022/11/03 02:02:42;;;;;;;9.57;1.42;;;12.00;99.90;;;;;;5075220;28;20039;-84
2022/11/03 02:05:09;;;;;;;8.73;1.65;;;12.10;99.90;;;;;;5092441;28;20032;-84
2022/11/03 02:07:42;;;;;;;10.25;1.65;;;12.10;99.90;;;;;;5075357;28;20503;-84
2022/11/03 02:10:08;;;;;;;10.82;2.83;;;12.10;99.90;;;;;;5092193;28;20081;-84
2022/11/03 02:12:34;;;;;;;11.45;2.17;;;12.10;99.90;;;;;;5091573;28;20051;-84
2022/11/03 02:15:10;;;;;;;11.38;2.40;;;12.10;99.90;;;;;;5091818;28;20044;-84
2022/11/03 02:17:36;;;;;;;12.93;2.65;;;12.10;99.90;;;;;;5092098;28;20447;-84
2022/11/03 02:20:15;;;;;;;9.90;1.90;;;12.00;99.90;;;;;;5075233;28;20028;-84
2022/11/03 02:22:46;;;;;;;15.57;2.75;;;12.00;99.90;;;;;;5074488;28;20032;-84
2022/11/03 02:25:35;;;;;;;8.23;2.10;;;12.00;99.90;;;;;;5074823;28;20082;-84
2022/11/03 02:28:02;;;;;;;8.27;2.45;;;12.00;99.90;;;;;;5074741;28;20083;-84
2022/11/03 02:30:37;;;;;;;13.93;2.10;;;12.00;99.90;;;;;;5075030;28;20083;-84
2022/11/03 02:33:30;;;;;;;11.68;2.08;;;11.90;99.90;;;;;;5074445;28;20140;-84
2022/11/03 02:36:02;;;;;;;;;;;12.00;99.90;;;;;;5075044;28;20051;-84
2022/11/03 02:38:30;;;;;;;11.18;2.13;;;11.90;99.90;;;;;;5074315;28;19916;-84
2022/11/03 02:40:59;;;;;;;16.35;3.03;;;11.90;99.90;;;;;;5091378;28;20032;-84
2022/11/03 02:43:26;;;;;;;8.73;1.92;;;11.90;99.90;;;;;;5074232;28;20036;-84
2022/11/03 02:45:54;;;;;;;11.70;2.10;;;11.90;99.90;;;;;;5091264;28;20044;-84
2022/11/03 02:48:19;;;;;;;9.90;2.10;;;11.90;99.90;;;;;;5091181;28;20047;-84
2022/11/03 02:50:46;;;;;;;9.07;1.73;;;11.90;99.90;;;;;;5091231;28;20036;-84
2022/11/03 02:53:13;;;;;;;9.90;2.53;;;11.90;99.90;;;;;;5090653;28;20047;-84
2022/11/03 02:55:59;;;;;;;11.73;2.10;;;12.00;99.90;;;;;;5074272;28;20040;-84
2022/11/03 02:58:45;;;;;;;10.40;1.80;;;12.00;99.90;;;;;;5074153;28;20089;-84
2022/11/03 03:01:45;;;;;;;14.82;2.17;;;12.00;99.90;;;;;;5074249;28;20040;-84
2022/11/03 03:04:17;;;;;;;9.38;2.42;;;12.00;99.90;;;;;;5090739;28;20524;-84
2022/11/03 03:06:48;;;;;;;5.95;2.03;;;11.90;99.90;;;;;;5074198;28;20542;-84
2022/11/03 03:09:25;;;;;;;10.55;1.88;;;11.90;99.90;;;;;;5074307;28;20036;-84
2022/11/03 03:11:54;;;;;;;11.25;2.70;;;11.90;99.90;;;;;;5090348;28;20397;-84
2022/11/03 03:14:30;;;;;;;11.95;2.33;;;11.90;99.90;;;;;;5090428;28;20037;-84
2022/11/03 03:17:03;;;;;;;9.82;2.00;;;11.90;99.90;;;;;;5091211;28;20040;-84
2022/11/03 03:20:01;;;;;;;9.60;2.10;;;11.90;99.90;;;;;;5073888;28;20037;-84
2022/11/03 03:22:33;;;;;;;13.48;2.28;;;11.80;99.90;;;;;;5090410;28;20042;-84
2022/11/03 03:25:07;;;;;;;9.85;2.20;;;11.80;99.90;;;;;;5090739;28;20041;-84
2022/11/03 03:27:37;;;;;;;11.40;2.20;;;11.90;99.90;;;;;;5073918;28;20043;-84
2022/11/03 03:30:07;;;;;;;8.55;1.70;;;11.80;99.90;;;;;;5074040;28;20083;-84
2022/11/03 03:32:37;;;;;;;14.38;3.30;;;11.90;99.90;;;;;;5073589;28;20070;-84
2022/11/03 03:35:06;;;;;;;10.95;1.88;;;11.90;99.90;;;;;;5090481;28;20067;-84
2022/11/03 03:37:36;;;;;;;10.65;2.08;;;11.90;99.90;;;;;;5090603;28;20082;-84
2022/11/03 03:40:07;;;;;;;10.00;2.05;;;11.80;99.90;;;;;;5073742;28;20408;-84
2022/11/03 03:42:36;;;;;;;17.33;2.42;;;11.90;99.90;;;;;;5090455;28;20040;-84
2022/11/03 03:45:04;;;;;;;10.05;1.90;;;11.80;99.90;;;;;;5073666;28;20509;-84
2022/11/03 03:47:33;;;;;;;12.20;2.17;;;11.80;99.90;;;;;;5090397;28;20040;-84
2022/11/03 03:50:00;;;;;;;11.15;2.25;;;11.80;99.90;;;;;;5090651;28;20040;-84
2022/11/03 03:52:26;;;;;;;10.35;2.13;;;11.90;99.90;;;;;;5090347;28;20044;-84
2022/11/03 03:54:53;;;;;;;14.82;2.75;;;11.80;99.90;;;;;;5090241;28;20040;-84
2022/11/03 03:57:22;;;;;;;9.18;1.60;;;11.80;99.90;;;;;;5090391;28;20040;-84
2022/11/03 03:59:47;;;;;;;7.45;1.73;;;11.90;99.90;;;;;;5073576;28;20043;-84
2022/11/03 04:02:13;;;;;;;11.20;2.13;;;11.80;99.90;;;;;;5073175;28;20036;-84
2022/11/03 04:04:40;;;;;;;9.32;1.83;;;11.90;99.90;;;;;;5073346;28;20044;-84
2022/11/03 04:09:51;;;;;;;9.02;1.70;;;11.80;99.90;;;;;;5090396;28;20126;-84
2022/11/03 04:23:16;;;;;;;10.77;2.20;;;11.80;99.90;;;;;;5090850;28;20036;-84
2022/11/03 04:25:50;;;;;;;12.32;1.60;;;11.80;99.90;;;;;;5094038;28;20044;-84
2022/11/03 04:28:16;;;;;;;9.73;2.45;;;11.80;99.90;;;;;;5077294;28;20052;-84
2022/11/03 04:30:42;;;;;;;11.43;2.15;;;11.80;99.90;;;;;;5077029;28;20047;-84
2022/11/03 04:33:19;;;;;;;13.70;2.40;;;11.80;99.90;;;;;;5093538;28;20412;-84
2022/11/03 04:35:45;;;;;;;11.20;2.05;;;11.80;99.90;;;;;;5093721;28;20075;-84
2022/11/03 04:38:14;;;;;;;8.68;1.80;;;11.80;99.90;;;;;;5094060;28;20032;-84
2022/11/03 04:40:45;;;;;;;11.77;2.10;;;11.80;99.90;;;;;;5093965;28;20390;-84
2022/11/03 04:43:17;;;;;;;9.63;2.05;;;11.80;99.90;;;;;;5076527;28;20047;-84
2022/11/03 04:45:45;;;;;;;13.65;2.30;;;11.80;99.90;;;;;;5093744;28;20048;-84
2022/11/03 04:48:24;;;;;;;8.88;2.15;;;11.80;99.90;;;;;;5076915;28;20600;-84
2022/11/03 04:50:55;;;;;;;12.23;2.53;;;11.80;99.90;;;;;;5093520;28;20413;-85
2022/11/03 04:53:21;;;;;;;11.10;2.17;;;11.80;99.90;;;;;;5093261;28;20051;-84
2022/11/03 04:55:50;;;;;;;15.40;2.40;;;11.80;99.90;;;;;;5093451;28;20040;-84
2022/11/03 04:58:15;;;;;;;10.63;2.08;;;11.80;99.90;;;;;;5076494;28;20572;-84
2022/11/03 05:00:41;;;;;;;8.18;2.00;;;11.80;99.90;;;;;;5076770;28;20119;-84
2022/11/03 05:03:20;;;;;;;11.18;2.22;;;11.80;99.90;;;;;;5092957;28;20554;-84
2022/11/03 05:05:46;;;;;;;10.15;2.47;;;11.80;99.90;;;;;;5076385;28;20036;-84
2022/11/03 05:08:12;;;;;;;14.40;2.08;;;11.80;99.90;;;;;;5093274;28;20040;-84
2022/11/03 05:10:37;;;;;;;9.55;2.10;;;11.80;99.90;;;;;;5076525;28;20093;-84
2022/11/03 05:13:26;;;;;;;11.05;2.30;;;11.80;99.90;;;;;;5092830;28;20485;-84
2022/11/03 05:15:57;;;;;;;12.52;1.92;;;11.80;99.90;;;;;;5093418;28;20121;-84
2022/11/03 05:18:31;;;;;;;9.13;1.95;;;11.80;99.90;;;;;;5093091;28;20043;-84
2022/11/03 05:21:01;;;;;;;10.63;2.80;;;11.90;99.90;;;;;;5093022;28;20075;-84
2022/11/03 05:23:35;;;;;;;10.68;1.95;;;11.90;99.90;;;;;;5075931;28;20040;-84
2022/11/03 05:26:02;;;;;;;10.50;2.67;;;11.90;99.90;;;;;;5092910;28;20036;-84
2022/11/03 05:28:34;;;;;;;9.48;2.30;;;11.90;99.90;;;;;;5075910;28;20481;-84
2022/11/03 05:31:00;;;;;;;8.32;2.05;;;11.90;99.90;;;;;;5092934;28;20051;-84
2022/11/03 05:33:35;;;;;;;9.18;2.10;;;11.90;99.90;;;;;;5092217;28;20047;-84
2022/11/03 05:36:06;;;;;;;11.55;2.22;;;11.90;99.90;;;;;;5075087;28;20497;-84
2022/11/03 05:38:33;;;;;;;10.10;2.08;;;11.90;99.90;;;;;;5092708;28;20043;-84
2022/11/03 05:40:59;;;;;;;7.72;1.52;;;11.90;99.90;;;;;;5075689;28;20028;-84
2022/11/03 05:43:25;;;;;;;13.05;2.97;;;11.90;99.90;;;;;;5075437;28;20029;-84
2022/11/03 05:45:54;;;;;;;8.93;2.22;;;11.90;99.90;;;;;;5092593;28;20116;-84
2022/11/03 05:48:39;;;;;;;13.40;2.72;;;11.90;99.90;;;;;;5092364;28;20044;-84
2022/11/03 05:51:38;;;;;;;14.60;4.18;;;11.90;99.90;;;;;;5075693;28;20044;-84
2022/11/03 05:54:11;;;;;;;10.52;2.53;;;12.00;99.90;;;;;;5032091;28;20055;-84
2022/11/03 05:56:37;;;;;;;14.02;2.83;;;12.00;99.90;;;;;;5092196;28;20036;-84
2022/11/03 05:59:05;;;;;;;14.82;4.72;;;12.00;99.90;;;;;;5089650;28;20039;-84
2022/11/03 06:01:38;;;;;;;13.32;2.95;;;12.00;99.90;;;;;;5091133;28;20524;-84
2022/11/03 06:04:28;;;;;;;7.57;1.65;;;12.00;99.90;;;;;;5073888;28;20126;-84
2022/11/03 06:07:00;;;;;;;10.23;2.15;;;12.00;99.90;;;;;;5091663;28;20059;-84
2022/11/03 06:09:26;;;;;;;7.20;1.85;;;11.90;99.90;;;;;;5091539;28;20047;-84
2022/11/03 06:11:55;;;;;;;12.05;1.95;;;11.90;99.90;;;;;;5091349;28;20058;-84
2022/11/03 06:14:24;;;;;;;13.63;2.28;;;11.90;99.90;;;;;;5074119;28;20500;-84
2022/11/03 06:16:57;;;;;;;15.20;2.35;;;12.00;99.90;;;;;;5091314;28;20135;-84
2022/11/03 06:19:27;;;;;;;10.48;2.00;;;12.00;99.90;;;;;;5091457;28;20040;-84
2022/11/03 06:21:56;;;;;;;9.15;2.28;;;12.00;99.90;;;;;;5074386;28;20043;-84
2022/11/03 06:24:30;;;;;;;10.27;2.22;;;12.00;99.90;;;;;;5090879;28;20047;-84
2022/11/03 06:26:57;;;;;;;15.77;3.25;;;12.00;99.90;;;;;;5074073;28;20043;-84
2022/11/03 06:29:22;;;;;;;12.73;2.25;;;12.00;99.90;;;;;;5091479;28;20043;-84
2022/11/03 06:31:51;;;;;;;9.73;1.98;;;12.00;99.90;;;;;;5073809;28;20436;-84
2022/11/03 06:34:43;;;;;;;8.18;2.00;;;12.00;99.90;;;;;;5090162;28;20378;-84
2022/11/03 06:37:19;;;;;;;10.50;2.10;;;12.00;99.90;;;;;;5074181;28;20489;-84
2022/11/03 06:39:46;;;;;;;12.98;2.40;;;12.00;99.90;;;;;;5073735;28;20493;-84
2022/11/03 06:42:18;;;;;;;10.57;2.22;;;12.00;99.90;;;;;;5073782;28;20032;-83
2022/11/03 06:44:46;;;;;;;10.55;2.40;;;12.00;99.90;;;;;;5074185;28;20108;-84
2022/11/03 06:47:26;;;;;;;11.40;2.33;;;12.00;99.90;;;;;;5073808;28;20484;-84
2022/11/03 06:49:57;;;;;;;9.68;2.10;;;12.00;99.90;;;;;;5073098;28;20075;-84
2022/11/03 06:52:25;;;;;;;9.20;2.15;;;12.00;99.90;;;;;;5090530;28;20094;-84
2022/11/03 06:55:08;;;;;;;12.00;3.05;;;12.00;99.90;;;;;;5073664;28;20071;-84
2022/11/03 06:57:37;;;;;;;10.45;2.05;;;12.00;99.90;;;;;;5091074;28;20093;-84
2022/11/03 07:00:24;;;;;;;9.98;2.40;;;12.00;99.90;;;;;;5090459;28;20043;-84
2022/11/03 07:03:00;;;;;;;10.18;2.00;;;12.00;99.90;;;;;;5090219;28;20123;-84
2022/11/03 07:05:28;;;;;;;11.23;2.08;;;12.10;99.90;;;;;;5090614;28;20051;-84
2022/11/03 07:08:00;;;;;;;12.02;1.95;;;12.10;99.90;;;;;;5073531;28;20075;-84
2022/11/03 07:10:29;;;;;;;12.88;2.13;;;12.10;99.90;;;;;;5089553;28;20435;-84
2022/11/03 07:12:58;;;;;;;10.68;2.58;;;12.10;99.90;;;;;;5089473;28;20104;-84
2022/11/03 07:15:29;;;;;;;9.18;2.42;;;12.10;99.90;;;;;;5073827;28;20054;-84
2022/11/03 07:17:55;;;;;;;9.07;2.08;;;12.20;99.90;;;;;;5090354;28;20448;-84
2022/11/03 07:20:21;;;;;;;11.95;3.67;;;12.20;99.90;;;;;;5090203;28;20089;-85
2022/11/03 07:22:48;;;;;;;13.27;3.63;;;12.30;99.90;;;;;;5090203;28;20031;-85
2022/11/03 07:25:20;;;;;;;10.50;1.90;;;12.40;99.90;;;;;;5073353;28;20058;-85
2022/11/03 07:27:49;;;;;;;9.93;1.93;;;12.30;99.90;;;;;;5073498;28;20065;-84
2022/11/03 07:30:29;;;;;;;9.45;2.60;;;12.30;99.90;;;;;;5089564;28;20040;-84
2022/11/03 07:33:01;;;;;;;9.35;1.80;;;12.30;99.90;;;;;;5089921;28;20097;-85
2022/11/03 07:35:33;;;;;;;10.30;3.03;;;12.40;99.90;;;;;;5073194;28;20409;-84
2022/11/03 07:38:27;;;;;;;9.18;2.92;;;12.40;99.90;;;;;;5089950;28;20066;-85
2022/11/03 07:40:55;;;;;;;11.55;1.92;;;12.40;99.90;;;;;;5073238;28;20032;-85
2022/11/03 07:43:39;;;;;;;10.13;2.38;;;12.40;99.90;;;;;;5089694;28;20036;-84
2022/11/03 07:46:05;;;;;;;12.00;1.92;;;12.50;99.90;;;;;;5089796;28;20082;-84
2022/11/03 07:48:50;;;;;;;7.88;2.40;;;12.50;99.90;;;;;;5090037;28;20044;-85
2022/11/03 07:51:33;;;;;;;8.73;2.28;;;12.50;99.90;;;;;;5089810;28;20447;-85
2022/11/03 07:54:08;;;;;;;10.43;2.45;;;12.50;99.90;;;;;;5089637;28;20040;-84
2022/11/03 07:56:43;;;;;;;10.23;2.30;;;12.60;99.90;;;;;;5089752;28;20039;-85
2022/11/03 07:59:12;;;;;;;12.68;2.60;;;12.60;99.90;;;;;;5074920;28;20043;-84
2022/11/03 08:01:48;;;;;;;12.82;2.60;;;12.70;99.90;;;;;;5077182;28;20047;-84
2022/11/03 08:04:19;;;;;;;12.65;2.30;;;12.70;99.90;;;;;;5076977;28;20086;-85
2022/11/03 08:06:45;;;;;;;9.38;2.53;;;12.70;99.90;;;;;;5077031;28;20044;-84
2022/11/03 08:09:11;;;;;;;8.95;2.97;;;12.70;99.90;;;;;;5093691;28;20051;-84
2022/11/03 08:11:37;;;;;;;11.30;2.70;;;12.80;99.90;;;;;;5093617;28;20115;-84
2022/11/03 08:14:02;;;;;;;8.95;2.05;;;12.80;99.90;;;;;;5076611;28;20085;-84
2022/11/03 08:16:28;;;;;;;13.88;4.13;;;12.90;99.90;;;;;;5094056;28;20501;-84
2022/11/03 08:18:53;;;;;;;13.10;3.83;;;13.00;99.90;;;;;;5076669;28;20036;-83
2022/11/03 08:21:19;;;;;;;11.02;2.25;;;13.10;99.90;;;;;;5093642;28;20040;-84
2022/11/03 08:23:44;;;;;;;13.23;2.05;;;13.10;99.90;;;;;;5093081;28;20043;-85
2022/11/03 08:26:10;;;;;;;9.35;2.10;;;13.10;99.90;;;;;;5076925;28;20032;-85
2022/11/03 08:28:36;;;;;;;11.30;2.80;;;13.20;99.90;;;;;;5093547;28;20508;-84
2022/11/03 08:31:03;;;;;;;10.32;2.42;;;13.20;99.90;;;;;;5093587;28;20040;-84
2022/11/03 08:33:34;;;;;;;11.98;3.78;;;13.20;99.90;;;;;;5093220;28;20032;-85
2022/11/03 08:36:00;;;;;;;9.55;2.28;;;13.30;99.90;;;;;;5093336;28;20128;-84
2022/11/03 08:38:26;;;;;;;10.07;2.55;;;13.40;99.90;;;;;;5076307;28;20028;-85
2022/11/03 08:40:57;;;;;;;11.38;2.22;;;13.40;99.90;;;;;;5093320;28;20051;-83
2022/11/03 08:43:22;;;;;;;14.40;3.60;;;13.40;99.90;;;;;;5092941;28;20145;-82
2022/11/03 08:45:52;;;;;;;12.68;3.72;;;13.50;99.90;;;;;;5093267;28;20071;-82
2022/11/03 08:48:22;;;;;;;15.98;2.30;;;13.60;99.90;;;;;;5093200;28;20531;-82
2022/11/03 08:50:49;;;;;;;9.57;2.25;;;13.60;99.90;;;;;;5091510;28;20063;-82
2022/11/03 08:53:15;;;;;;;12.25;2.17;;;13.60;99.90;;;;;;5093067;28;20040;-83
2022/11/03 08:55:41;;;;;;;10.98;3.33;;;13.60;99.90;;;;;;5091056;28;20036;-82
2022/11/03 08:58:07;;;;;;;9.93;2.30;;;13.70;99.90;;;;;;5092871;28;20181;-83
2022/11/03 09:00:34;;;;;;;8.60;2.35;;;13.70;99.90;;;;;;5075548;28;20028;-83
2022/11/03 09:03:00;;;;;;;15.07;4.03;;;13.70;99.90;;;;;;5092437;28;20036;-82
2022/11/03 09:05:25;;;;;;;13.85;2.58;;;13.80;99.90;;;;;;5092944;28;20056;-83
2022/11/03 09:07:51;;;;;;;10.07;2.55;;;13.80;99.90;;;;;;5092792;28;20068;-83
2022/11/03 09:10:16;;;;;;;8.30;2.00;;;13.80;99.90;;;;;;5091056;28;20040;-82
2022/11/03 09:12:42;;;;;;;11.70;3.65;;;13.80;99.90;;;;;;5075373;28;20047;-82
2022/11/03 09:15:08;;;;;;;13.70;3.65;;;13.90;99.90;;;;;;5092423;28;20043;-82
2022/11/03 09:17:34;;;;;;;13.98;2.20;;;14.00;99.90;;;;;;5092728;28;20134;-82
2022/11/03 09:19:59;;;;;;;11.88;2.30;;;14.00;99.90;;;;;;5075589;28;20135;-82
2022/11/03 09:22:25;;;;;;;12.52;3.70;;;14.00;99.90;;;;;;5092067;28;20050;-82
2022/11/03 09:24:50;;;;;;;11.82;3.40;;;14.00;99.90;;;;;;5092287;28;20078;-82
2022/11/03 09:27:16;;;;;;;12.88;3.33;;;14.10;99.90;;;;;;5075440;28;20036;-82
2022/11/03 09:29:42;;;;;;;11.23;2.17;;;14.20;99.90;;;;;;5075529;28;20043;-82
2022/11/03 09:32:08;;;;;;;11.82;2.28;;;14.20;99.90;;;;;;5075229;28;20040;-82
2022/11/03 09:34:33;;;;;;;10.07;2.38;;;14.30;99.90;;;;;;5091601;28;20105;-82
2022/11/03 09:36:59;;;;;;;15.68;3.97;;;14.40;99.90;;;;;;5075816;28;20485;-82
2022/11/03 09:39:24;;;;;;;16.80;4.20;;;14.50;99.90;;;;;;5092034;28;20501;-82
2022/11/03 09:41:51;;;;;;;12.60;3.50;;;14.60;99.90;;;;;;5092410;28;20126;-82
2022/11/03 09:44:18;;;;;;;13.90;3.20;;;14.80;99.90;;;;;;5074739;28;20044;-82
2022/11/03 09:46:43;;;;;;;12.82;2.53;;;14.80;99.90;;;;;;5092380;28;20401;-82
2022/11/03 09:49:13;;;;;;;13.90;2.13;;;14.90;99.90;;;;;;5092133;28;20044;-82
2022/11/03 09:51:40;;;;;;;12.25;3.55;;;14.90;99.90;;;;;;5092151;28;20051;-83
2022/11/03 09:54:05;;;;;;;15.35;3.72;;;15.00;99.90;;;;;;5074889;28;20492;-82
2022/11/03 09:56:35;;;;;;;11.13;2.80;;;15.00;99.90;;;;;;5074860;28;20532;-82
2022/11/03 09:59:00;;;;;;;7.55;1.70;;;15.00;99.90;;;;;;5091918;28;20478;-82
2022/11/03 10:01:26;;;;;;;10.82;3.33;;;15.00;99.90;;;;;;5074965;28;20544;-83
2022/11/03 10:03:56;;;;;;;9.77;2.90;;;15.10;99.90;;;;;;5074456;28;20032;-83
2022/11/03 10:06:22;;;;;;;7.47;2.30;;;15.20;99.90;;;;;;5075084;28;20397;-83
2022/11/03 10:08:48;;;;;;;12.73;3.70;;;15.20;99.90;;;;;;5074903;28;20036;-83
2022/11/03 10:11:14;;;;;;;13.73;3.33;;;15.30;99.90;;;;;;5091398;28;20039;-83
2022/11/03 10:13:48;;;;;;;8.48;2.15;;;15.40;99.90;;;;;;5091361;28;20090;-83
2022/11/03 10:16:19;;;;;;;11.75;3.17;;;15.40;99.90;;;;;;5092510;28;20040;-82
2022/11/03 10:18:45;;;;;;;11.68;2.95;;;15.40;99.90;;;;;;5074459;28;20032;-83
2022/11/03 10:21:26;;;;;;;12.45;3.53;;;15.40;99.90;;;;;;5074168;28;20105;-83
2022/11/03 10:23:52;;;;;;;12.23;3.03;;;15.50;99.90;;;;;;5091007;28;20118;-82
2022/11/03 10:26:19;;;;;;;10.27;2.35;;;15.40;99.90;;;;;;5074344;28;20148;-82
2022/11/03 10:28:58;;;;;;;10.82;3.20;;;15.40;99.90;;;;;;5090760;28;20051;-83
2022/11/03 10:31:34;;;;;;;11.82;2.45;;;15.40;99.90;;;;;;5091336;28;20040;-83
2022/11/03 10:34:00;;;;;;;11.30;3.40;;;15.50;99.90;;;;;;5090641;28;20040;-83
2022/11/03 10:36:27;;;;;;;13.45;3.25;;;15.50;99.90;;;;;;5074116;28;20122;-83
2022/11/03 10:38:54;;;;;;;11.88;3.17;;;15.60;99.90;;;;;;5073786;28;20031;-82
2022/11/03 10:41:30;;;;;;;10.50;2.63;;;15.60;99.90;;;;;;5073971;28;20042;-83
2022/11/03 10:44:11;;;;;;;12.25;2.92;;;15.60;99.90;;;;;;5073535;28;20515;-83
2022/11/03 10:46:38;;;;;;;10.50;2.45;;;15.70;99.90;;;;;;5124222;27;20036;-83
2022/11/03 10:49:14;;;;;;;11.82;3.05;;;15.60;99.90;;;;;;5124840;27;20035;-83
2022/11/03 10:51:41;;;;;;;13.07;3.15;;;15.70;99.90;;;;;;5090671;28;20039;-83
2022/11/03 10:54:13;;;;;;;12.50;3.40;;;15.70;99.90;;;;;;5090605;28;20056;-83
2022/11/03 10:56:39;;;;;;;8.85;1.95;;;15.90;99.90;;;;;;5090690;28;20603;-83
2022/11/03 10:59:05;;;;;;;11.93;2.83;;;16.00;99.90;;;;;;5090360;28;20040;-83
2022/11/03 11:01:31;;;;;;;11.88;3.05;;;16.10;99.90;;;;;;5090668;28;20036;-83
2022/11/03 11:03:57;;;;;;;11.95;2.88;;;16.20;99.90;;;;;;5090093;28;20474;-83
2022/11/03 11:06:30;;;;;;;12.43;3.50;;;16.40;99.90;;;;;;5073613;28;20493;-82
2022/11/03 11:09:04;;;;;;;7.53;1.77;;;16.50;99.90;;;;;;5090529;28;20039;-83
2022/11/03 11:11:30;;;;;;;10.85;2.70;;;16.50;99.90;;;;;;5073892;28;20047;-83
2022/11/03 11:14:22;;;;;;;9.10;2.83;;;16.50;99.10;;;;;;5073099;28;20044;-83
2022/11/03 11:16:51;;;;;;;8.97;2.40;;;16.60;95.80;;;;;;5090527;28;20044;-83
2022/11/03 11:19:17;;;;;;;10.65;2.60;;;16.60;97.80;;;;;;5090171;28;20043;-83
2022/11/03 11:21:42;;;;;;;10.05;2.60;;;16.50;97.40;;;;;;5090347;28;20035;-83
2022/11/03 11:24:09;;;;;;;9.30;2.70;;;16.50;97.20;;;;;;5073397;28;20040;-83
2022/11/03 11:26:36;;;;;;;8.43;2.53;;;16.50;97.40;;;;;;5090352;28;20056;-83
2022/11/03 11:29:07;;;;;;;9.90;2.47;;;16.40;96.60;;;;;;5072919;28;20047;-83
2022/11/03 11:31:40;;;;;;;10.00;2.60;;;16.40;96.10;;;;;;5073071;28;20063;-83
2022/11/03 11:34:15;;;;;;;;;;;16.30;96.90;;;;;;5072182;28;20088;-83
2022/11/03 11:36:53;;;;;;;8.68;1.95;;;16.20;97.70;;;;;;5089929;28;19920;-83
2022/11/03 11:39:19;;;;;;;11.50;2.95;;;16.10;99.40;;;;;;5089367;28;20072;-83
2022/11/03 11:42:11;;;;;;;8.93;2.75;;;16.10;99.90;;;;;;5089904;28;20090;-83
2022/11/03 11:44:51;;;;;;;8.18;2.03;;;16.20;98.70;;;;;;5097168;28;20064;-83
2022/11/03 11:47:42;;;;;;;10.80;2.90;;;16.10;99.90;;;;;;5073424;28;20382;-83
2022/11/03 11:50:10;;;;;;;10.48;2.75;;;16.10;99.00;;;;;;5072981;28;20044;-83
2022/11/03 11:52:52;;;;;;;15.20;2.35;;;16.10;99.20;;;;;;5072352;28;20068;-83
2022/11/03 11:55:24;;;;;;;11.27;2.78;;;16.10;99.60;;;;;;5087737;28;20040;-83
2022/11/03 11:57:51;;;;;;;10.27;2.80;;;16.10;98.30;;;;;;5089421;28;20556;-83
2022/11/03 12:00:25;;;;;;;10.90;3.15;;;16.10;98.30;;;;;;5089322;28;20040;-83
2022/11/03 12:02:52;;;;;;;11.13;2.95;;;16.10;98.40;;;;;;5073045;28;20047;-83
2022/11/03 12:05:22;;;;;;;9.73;2.88;;;16.10;96.90;;;;;;5089810;28;20036;-83
2022/11/03 12:07:48;;;;;;;11.95;2.97;;;16.00;95.90;;;;;;5073383;28;20051;-83
2022/11/03 12:10:22;;;;;;;10.52;2.83;;;16.00;96.30;;;;;;5089363;28;20501;-83
2022/11/03 12:12:49;;;;;;;7.78;2.00;;;16.00;96.80;;;;;;5088373;28;20032;-83
2022/11/03 12:15:52;;;;;;;11.13;3.22;;;15.90;97.40;;;;;;5090255;28;20088;-83
2022/11/03 12:18:41;;;;;;;10.57;2.97;;;15.90;96.00;;;;;;5090184;28;20036;-83
2022/11/03 12:21:09;;;;;;;9.13;2.90;;;15.90;96.00;;;;;;5073279;28;20047;-83
2022/11/03 12:23:42;;;;;;;10.23;2.40;;;15.90;96.00;;;;;;5089932;28;20044;-83
2022/11/03 12:26:26;;;;;;;7.38;2.20;;;15.90;96.40;;;;;;5090189;28;20040;-83
2022/11/03 12:28:52;;;;;;;10.43;3.00;;;15.90;97.40;;;;;;5090006;28;20040;-83
2022/11/03 12:31:17;;;;;;;12.18;2.88;;;15.90;97.80;;;;;;5089798;28;20047;-83
2022/11/03 12:33:43;;;;;;;8.27;2.30;;;16.00;96.20;;;;;;5089555;28;20088;-84
2022/11/03 12:36:08;;;;;;;10.07;3.00;;;16.00;97.40;;;;;;5073524;28;20045;-83
2022/11/03 12:38:34;;;;;;;9.88;2.83;;;16.10;97.60;;;;;;5089476;28;20055;-84
2022/11/03 12:43:45;;;;;;;9.38;2.70;;;16.30;96.80;;;;;;5089068;28;20032;-83
2022/11/03 12:46:11;;;;;;;9.32;2.72;;;16.60;95.60;;;;;;5076638;28;20043;-83
2022/11/03 12:48:37;;;;;;;13.15;2.85;;;16.70;94.10;;;;;;5093042;28;20066;-83
2022/11/03 12:51:02;;;;;;;9.25;2.40;;;16.90;93.40;;;;;;5076203;28;20085;-84
2022/11/03 12:53:28;;;;;;;11.40;3.00;;;17.00;93.00;;;;;;5075172;28;20042;-84
2022/11/03 12:55:53;;;;;;;11.23;3.08;;;17.50;93.00;;;;;;5092279;28;20035;-84
2022/11/03 12:58:19;;;;;;;9.38;2.38;;;17.90;90.90;;;;;;5091180;28;20497;-84
2022/11/03 13:00:45;;;;;;;10.35;2.53;;;18.20;89.10;;;;;;5091593;28;20050;-84
2022/11/03 13:03:11;;;;;;;9.50;2.65;;;18.50;86.50;;;;;;5075208;28;20114;-84
2022/11/03 13:05:36;;;;;;;8.88;2.28;;;19.30;84.40;;;;;;5092918;28;20093;-84
2022/11/03 13:08:02;;;;;;;10.88;3.08;;;19.90;75.70;;;;;;5091266;28;20407;-84
2022/11/03 13:10:27;;;;;;;9.05;2.30;;;19.70;73.00;;;;;;5074229;28;20615;-84
2022/11/03 13:12:53;;;;;;;11.07;2.53;;;19.40;72.70;;;;;;5090424;28;20036;-84
2022/11/03 13:15:19;;;;;;;12.00;2.65;;;19.10;74.00;;;;;;5090912;28;20101;-84
2022/11/03 13:17:44;;;;;;;7.30;2.33;;;18.90;74.20;;;;;;5074098;28;20047;-84